sensor_id;sensor_type;location;lat;lon;timestamp;P1;durP1;ratioP1;P2;durP2;ratioP2
76176;SDS011;64938;47.696;8.066;2023-06-19T00:00:09;9.57;;;8.87;;
76176;SDS011;64938;47.696;8.066;2023-06-19T00:02:40;8.33;;;7.73;;
76176;SDS011;64938;47.696;8.066;2023-06-19T00:05:06;8.80;;;8.10;;
76176;SDS011;64938;47.696;8.066;2023-06-19T00:07:33;9.60;;;8.90;;
76176;SDS011;64938;47.696;8.066;2023-06-19T00:09:59;8.27;;;7.67;;
76176;SDS011;64938;47.696;8.066;2023-06-19T00:12:25;9.40;;;8.60;;
76176;SDS011;64938;47.696;8.066;2023-06-19T00:14:50;9.90;;;9.10;;
76176;SDS011;64938;47.696;8.066;2023-06-19T00:17:16;8.93;;;8.20;;
76176;SDS011;64938;47.696;8.066;2023-06-19T00:19:42;9.17;;;8.30;;
76176;SDS011;64938;47.696;8.066;2023-06-19T00:22:08;9.93;;;9.07;;
76176;SDS011;64938;47.696;8.066;2023-06-19T00:24:34;9.70;;;8.90;;
76176;SDS011;64938;47.696;8.066;2023-06-19T00:27:04;10.00;;;9.20;;
76176;SDS011;64938;47.696;8.066;2023-06-19T00:29:31;9.23;;;8.47;;
76176;SDS011;64938;47.696;8.066;2023-06-19T00:31:58;9.60;;;8.90;;
76176;SDS011;64938;47.696;8.066;2023-06-19T00:34:24;9.03;;;8.33;;
76176;SDS011;64938;47.696;8.066;2023-06-19T00:36:52;10.00;;;9.20;;
76176;SDS011;64938;47.696;8.066;2023-06-19T00:39:24;9.90;;;9.00;;
76176;SDS011;64938;47.696;8.066;2023-06-19T00:41:54;10.77;;;9.77;;
76176;SDS011;64938;47.696;8.066;2023-06-19T00:44:20;9.67;;;8.87;;
76176;SDS011;64938;47.696;8.066;2023-06-19T00:46:46;13.67;;;10.93;;
76176;SDS011;64938;47.696;8.066;2023-06-19T00:49:13;11.00;;;9.90;;
76176;SDS011;64938;47.696;8.066;2023-06-19T00:51:39;11.03;;;9.90;;
76176;SDS011;64938;47.696;8.066;2023-06-19T00:54:08;11.03;;;10.13;;
76176;SDS011;64938;47.696;8.066;2023-06-19T00:56:33;11.23;;;10.33;;
76176;SDS011;64938;47.696;8.066;2023-06-19T00:59:02;10.67;;;9.77;;
76176;SDS011;64938;47.696;8.066;2023-06-19T01:01:31;11.73;;;10.40;;
76176;SDS011;64938;47.696;8.066;2023-06-19T01:03:56;12.27;;;11.37;;
76176;SDS011;64938;47.696;8.066;2023-06-19T01:06:23;12.87;;;11.63;;
76176;SDS011;64938;47.696;8.066;2023-06-19T01:09:02;11.53;;;10.63;;
76176;SDS011;64938;47.696;8.066;2023-06-19T01:11:39;10.63;;;9.83;;
76176;SDS011;64938;47.696;8.066;2023-06-19T01:14:21;10.13;;;9.33;;
76176;SDS011;64938;47.696;8.066;2023-06-19T01:16:51;11.47;;;10.50;;
76176;SDS011;64938;47.696;8.066;2023-06-19T01:19:20;10.53;;;9.60;;
76176;SDS011;64938;47.696;8.066;2023-06-19T01:21:47;11.23;;;10.00;;
76176;SDS011;64938;47.696;8.066;2023-06-19T01:24:13;9.90;;;9.10;;
76176;SDS011;64938;47.696;8.066;2023-06-19T01:26:39;10.43;;;9.63;;
76176;SDS011;64938;47.696;8.066;2023-06-19T01:29:05;9.60;;;8.80;;
76176;SDS011;64938;47.696;8.066;2023-06-19T01:31:34;10.20;;;9.30;;
76176;SDS011;64938;47.696;8.066;2023-06-19T01:34:03;9.43;;;8.63;;
76176;SDS011;64938;47.696;8.066;2023-06-19T01:36:29;9.60;;;8.90;;
76176;SDS011;64938;47.696;8.066;2023-06-19T01:38:56;8.83;;;8.10;;
76176;SDS011;64938;47.696;8.066;2023-06-19T01:41:22;9.27;;;8.40;;
76176;SDS011;64938;47.696;8.066;2023-06-19T01:43:50;9.30;;;8.60;;
76176;SDS011;64938;47.696;8.066;2023-06-19T01:46:19;7.83;;;7.13;;
76176;SDS011;64938;47.696;8.066;2023-06-19T01:48:45;8.53;;;7.70;;
76176;SDS011;64938;47.696;8.066;2023-06-19T01:51:10;8.07;;;7.27;;
76176;SDS011;64938;47.696;8.066;2023-06-19T01:53:36;7.97;;;7.27;;
76176;SDS011;64938;47.696;8.066;2023-06-19T01:56:02;8.23;;;7.53;;
76176;SDS011;64938;47.696;8.066;2023-06-19T01:58:29;7.10;;;6.50;;
76176;SDS011;64938;47.696;8.066;2023-06-19T02:00:55;6.93;;;6.40;;
76176;SDS011;64938;47.696;8.066;2023-06-19T02:03:20;7.90;;;7.20;;
76176;SDS011;64938;47.696;8.066;2023-06-19T02:05:46;7.10;;;6.50;;
76176;SDS011;64938;47.696;8.066;2023-06-19T02:08:12;6.80;;;6.17;;
76176;SDS011;64938;47.696;8.066;2023-06-19T02:10:37;6.53;;;5.93;;
76176;SDS011;64938;47.696;8.066;2023-06-19T02:13:03;6.80;;;6.30;;
76176;SDS011;64938;47.696;8.066;2023-06-19T02:15:29;5.80;;;5.20;;
76176;SDS011;64938;47.696;8.066;2023-06-19T02:17:55;6.10;;;5.50;;
76176;SDS011;64938;47.696;8.066;2023-06-19T02:20:22;5.80;;;5.40;;
76176;SDS011;64938;47.696;8.066;2023-06-19T02:22:49;5.43;;;4.93;;
76176;SDS011;64938;47.696;8.066;2023-06-19T02:25:15;6.10;;;5.60;;
76176;SDS011;64938;47.696;8.066;2023-06-19T02:27:41;5.50;;;5.10;;
76176;SDS011;64938;47.696;8.066;2023-06-19T02:30:08;4.70;;;4.40;;
76176;SDS011;64938;47.696;8.066;2023-06-19T02:32:34;5.47;;;5.07;;
76176;SDS011;64938;47.696;8.066;2023-06-19T02:34:59;5.00;;;4.60;;
76176;SDS011;64938;47.696;8.066;2023-06-19T02:37:25;5.43;;;5.03;;
76176;SDS011;64938;47.696;8.066;2023-06-19T02:39:50;5.57;;;5.17;;
76176;SDS011;64938;47.696;8.066;2023-06-19T02:42:16;5.43;;;4.93;;
76176;SDS011;64938;47.696;8.066;2023-06-19T02:44:42;7.70;;;6.03;;
76176;SDS011;64938;47.696;8.066;2023-06-19T02:47:08;5.90;;;5.40;;
76176;SDS011;64938;47.696;8.066;2023-06-19T02:49:34;5.53;;;5.03;;
76176;SDS011;64938;47.696;8.066;2023-06-19T02:51:59;5.80;;;5.40;;
76176;SDS011;64938;47.696;8.066;2023-06-19T02:54:25;5.40;;;5.00;;
76176;SDS011;64938;47.696;8.066;2023-06-19T02:56:50;6.57;;;6.07;;
76176;SDS011;64938;47.696;8.066;2023-06-19T02:59:16;6.10;;;5.50;;
76176;SDS011;64938;47.696;8.066;2023-06-19T03:01:42;5.47;;;5.07;;
76176;SDS011;64938;47.696;8.066;2023-06-19T03:04:07;5.13;;;4.73;;
76176;SDS011;64938;47.696;8.066;2023-06-19T03:06:33;5.40;;;5.00;;
76176;SDS011;64938;47.696;8.066;2023-06-19T03:09:04;5.27;;;4.87;;
76176;SDS011;64938;47.696;8.066;2023-06-19T03:11:39;5.83;;;5.33;;
76176;SDS011;64938;47.696;8.066;2023-06-19T03:14:05;5.80;;;5.30;;
76176;SDS011;64938;47.696;8.066;2023-06-19T03:16:32;5.63;;;5.17;;
76176;SDS011;64938;47.696;8.066;2023-06-19T03:18:59;5.70;;;5.20;;
76176;SDS011;64938;47.696;8.066;2023-06-19T03:21:24;6.27;;;5.77;;
76176;SDS011;64938;47.696;8.066;2023-06-19T03:23:50;5.87;;;5.37;;
76176;SDS011;64938;47.696;8.066;2023-06-19T03:26:16;5.43;;;5.03;;
76176;SDS011;64938;47.696;8.066;2023-06-19T03:28:43;6.00;;;5.40;;
76176;SDS011;64938;47.696;8.066;2023-06-19T03:31:08;5.90;;;5.40;;
76176;SDS011;64938;47.696;8.066;2023-06-19T03:33:34;5.73;;;5.23;;
76176;SDS011;64938;47.696;8.066;2023-06-19T03:36:00;6.23;;;5.73;;
76176;SDS011;64938;47.696;8.066;2023-06-19T03:38:25;6.27;;;5.77;;
76176;SDS011;64938;47.696;8.066;2023-06-19T03:40:51;6.40;;;5.87;;
76176;SDS011;64938;47.696;8.066;2023-06-19T03:43:17;6.00;;;5.50;;
76176;SDS011;64938;47.696;8.066;2023-06-19T03:45:43;6.67;;;6.07;;
76176;SDS011;64938;47.696;8.066;2023-06-19T03:48:09;5.70;;;5.20;;
76176;SDS011;64938;47.696;8.066;2023-06-19T03:50:34;5.67;;;5.17;;
76176;SDS011;64938;47.696;8.066;2023-06-19T03:53:00;5.73;;;5.27;;
76176;SDS011;64938;47.696;8.066;2023-06-19T03:55:25;6.30;;;5.80;;
76176;SDS011;64938;47.696;8.066;2023-06-19T03:57:51;5.97;;;5.57;;
76176;SDS011;64938;47.696;8.066;2023-06-19T04:00:18;6.67;;;6.17;;
76176;SDS011;64938;47.696;8.066;2023-06-19T04:02:43;5.80;;;5.27;;
76176;SDS011;64938;47.696;8.066;2023-06-19T04:05:13;5.90;;;5.40;;
76176;SDS011;64938;47.696;8.066;2023-06-19T04:07:39;6.00;;;5.50;;
76176;SDS011;64938;47.696;8.066;2023-06-19T04:10:05;6.20;;;5.70;;
76176;SDS011;64938;47.696;8.066;2023-06-19T04:12:31;6.00;;;5.60;;
76176;SDS011;64938;47.696;8.066;2023-06-19T04:14:56;6.70;;;6.10;;
76176;SDS011;64938;47.696;8.066;2023-06-19T04:17:22;5.80;;;5.40;;
76176;SDS011;64938;47.696;8.066;2023-06-19T04:19:47;5.80;;;5.40;;
76176;SDS011;64938;47.696;8.066;2023-06-19T04:22:17;5.37;;;4.97;;
76176;SDS011;64938;47.696;8.066;2023-06-19T04:24:42;5.43;;;5.03;;
76176;SDS011;64938;47.696;8.066;2023-06-19T04:27:09;5.97;;;5.57;;
76176;SDS011;64938;47.696;8.066;2023-06-19T04:29:35;5.60;;;5.20;;
76176;SDS011;64938;47.696;8.066;2023-06-19T04:32:01;5.63;;;5.13;;
76176;SDS011;64938;47.696;8.066;2023-06-19T04:34:28;6.63;;;6.03;;
76176;SDS011;64938;47.696;8.066;2023-06-19T04:36:54;6.20;;;5.80;;
76176;SDS011;64938;47.696;8.066;2023-06-19T04:39:23;6.50;;;5.97;;
76176;SDS011;64938;47.696;8.066;2023-06-19T04:41:49;5.90;;;5.43;;
76176;SDS011;64938;47.696;8.066;2023-06-19T04:44:15;6.50;;;6.00;;
76176;SDS011;64938;47.696;8.066;2023-06-19T04:46:41;6.63;;;6.03;;
76176;SDS011;64938;47.696;8.066;2023-06-19T04:49:12;6.90;;;6.40;;
76176;SDS011;64938;47.696;8.066;2023-06-19T04:51:38;6.30;;;5.80;;
76176;SDS011;64938;47.696;8.066;2023-06-19T04:54:05;6.70;;;6.10;;
76176;SDS011;64938;47.696;8.066;2023-06-19T04:56:31;5.90;;;5.40;;
76176;SDS011;64938;47.696;8.066;2023-06-19T04:58:57;5.90;;;5.50;;
76176;SDS011;64938;47.696;8.066;2023-06-19T05:01:25;6.17;;;5.77;;
76176;SDS011;64938;47.696;8.066;2023-06-19T05:03:55;6.17;;;5.70;;
76176;SDS011;64938;47.696;8.066;2023-06-19T05:06:24;6.57;;;6.00;;
76176;SDS011;64938;47.696;8.066;2023-06-19T05:08:50;6.83;;;6.23;;
76176;SDS011;64938;47.696;8.066;2023-06-19T05:11:16;6.40;;;5.90;;
76176;SDS011;64938;47.696;8.066;2023-06-19T05:13:42;6.33;;;5.83;;
76176;SDS011;64938;47.696;8.066;2023-06-19T05:16:08;6.47;;;5.97;;
76176;SDS011;64938;47.696;8.066;2023-06-19T05:18:42;6.40;;;5.93;;
76176;SDS011;64938;47.696;8.066;2023-06-19T05:21:09;6.00;;;5.40;;
76176;SDS011;64938;47.696;8.066;2023-06-19T05:23:35;5.30;;;4.90;;
76176;SDS011;64938;47.696;8.066;2023-06-19T05:26:00;6.60;;;6.00;;
76176;SDS011;64938;47.696;8.066;2023-06-19T05:28:26;5.47;;;5.00;;
76176;SDS011;64938;47.696;8.066;2023-06-19T05:30:51;6.30;;;5.80;;
76176;SDS011;64938;47.696;8.066;2023-06-19T05:33:17;6.33;;;5.73;;
76176;SDS011;64938;47.696;8.066;2023-06-19T05:35:42;5.60;;;5.10;;
76176;SDS011;64938;47.696;8.066;2023-06-19T05:38:08;6.70;;;6.10;;
76176;SDS011;64938;47.696;8.066;2023-06-19T05:40:34;5.80;;;5.30;;
76176;SDS011;64938;47.696;8.066;2023-06-19T05:43:00;5.65;;;5.25;;
76176;SDS011;64938;47.696;8.066;2023-06-19T05:45:26;5.82;;;5.43;;
76176;SDS011;64938;47.696;8.066;2023-06-19T05:47:52;6.25;;;5.75;;
76176;SDS011;64938;47.696;8.066;2023-06-19T05:50:17;6.88;;;6.22;;
76176;SDS011;64938;47.696;8.066;2023-06-19T05:52:43;5.97;;;5.57;;
76176;SDS011;64938;47.696;8.066;2023-06-19T05:55:09;6.55;;;6.05;;
76176;SDS011;64938;47.696;8.066;2023-06-19T05:57:36;6.68;;;6.28;;
76176;SDS011;64938;47.696;8.066;2023-06-19T06:00:02;6.82;;;6.40;;
76176;SDS011;64938;47.696;8.066;2023-06-19T06:02:29;6.05;;;5.65;;
76176;SDS011;64938;47.696;8.066;2023-06-19T06:04:54;6.85;;;6.30;;
76176;SDS011;64938;47.696;8.066;2023-06-19T06:07:21;7.15;;;5.97;;
76176;SDS011;64938;47.696;8.066;2023-06-19T06:09:47;7.07;;;6.47;;
76176;SDS011;64938;47.696;8.066;2023-06-19T06:12:12;7.20;;;6.63;;
76176;SDS011;64938;47.696;8.066;2023-06-19T06:14:39;6.68;;;6.25;;
76176;SDS011;64938;47.696;8.066;2023-06-19T06:17:06;7.15;;;6.60;;
76176;SDS011;64938;47.696;8.066;2023-06-19T06:19:32;7.50;;;6.90;;
76176;SDS011;64938;47.696;8.066;2023-06-19T06:21:58;7.28;;;6.75;;
76176;SDS011;64938;47.696;8.066;2023-06-19T06:24:27;8.23;;;7.63;;
76176;SDS011;64938;47.696;8.066;2023-06-19T06:26:53;8.40;;;7.72;;
76176;SDS011;64938;47.696;8.066;2023-06-19T06:29:21;7.88;;;7.28;;
76176;SDS011;64938;47.696;8.066;2023-06-19T06:31:46;8.30;;;7.70;;
76176;SDS011;64938;47.696;8.066;2023-06-19T06:34:13;9.57;;;8.77;;
76176;SDS011;64938;47.696;8.066;2023-06-19T06:36:40;9.00;;;8.30;;
76176;SDS011;64938;47.696;8.066;2023-06-19T06:39:05;8.32;;;7.65;;
76176;SDS011;64938;47.696;8.066;2023-06-19T06:41:33;9.13;;;7.78;;
76176;SDS011;64938;47.696;8.066;2023-06-19T06:44:00;8.32;;;7.65;;
76176;SDS011;64938;47.696;8.066;2023-06-19T06:46:26;8.93;;;8.15;;
76176;SDS011;64938;47.696;8.066;2023-06-19T06:48:51;7.50;;;6.95;;
76176;SDS011;64938;47.696;8.066;2023-06-19T06:51:17;7.47;;;6.75;;
76176;SDS011;64938;47.696;8.066;2023-06-19T06:53:42;7.50;;;7.00;;
76176;SDS011;64938;47.696;8.066;2023-06-19T06:56:08;8.25;;;7.65;;
76176;SDS011;64938;47.696;8.066;2023-06-19T06:58:34;8.57;;;7.55;;
76176;SDS011;64938;47.696;8.066;2023-06-19T07:00:59;7.50;;;7.00;;
76176;SDS011;64938;47.696;8.066;2023-06-19T07:03:25;7.95;;;7.25;;
76176;SDS011;64938;47.696;8.066;2023-06-19T07:05:55;8.15;;;7.55;;
76176;SDS011;64938;47.696;8.066;2023-06-19T07:08:21;8.13;;;7.32;;
76176;SDS011;64938;47.696;8.066;2023-06-19T07:10:46;8.50;;;7.85;;
76176;SDS011;64938;47.696;8.066;2023-06-19T07:13:12;7.97;;;7.40;;
76176;SDS011;64938;47.696;8.066;2023-06-19T07:15:39;7.85;;;7.35;;
76176;SDS011;64938;47.696;8.066;2023-06-19T07:18:04;9.00;;;8.30;;
76176;SDS011;64938;47.696;8.066;2023-06-19T07:20:30;8.90;;;8.30;;
76176;SDS011;64938;47.696;8.066;2023-06-19T07:22:55;7.93;;;7.32;;
76176;SDS011;64938;47.696;8.066;2023-06-19T07:25:22;8.65;;;8.05;;
76176;SDS011;64938;47.696;8.066;2023-06-19T07:27:49;9.10;;;8.05;;
76176;SDS011;64938;47.696;8.066;2023-06-19T07:30:15;8.75;;;7.95;;
76176;SDS011;64938;47.696;8.066;2023-06-19T07:32:41;8.13;;;7.43;;
76176;SDS011;64938;47.696;8.066;2023-06-19T07:35:07;7.68;;;7.13;;
76176;SDS011;64938;47.696;8.066;2023-06-19T07:37:33;9.43;;;8.70;;
76176;SDS011;64938;47.696;8.066;2023-06-19T07:40:01;9.05;;;8.25;;
76176;SDS011;64938;47.696;8.066;2023-06-19T07:42:26;8.25;;;7.65;;
76176;SDS011;64938;47.696;8.066;2023-06-19T07:44:52;8.30;;;7.70;;
76176;SDS011;64938;47.696;8.066;2023-06-19T07:47:17;8.13;;;7.50;;
76176;SDS011;64938;47.696;8.066;2023-06-19T07:49:44;8.32;;;7.72;;
76176;SDS011;64938;47.696;8.066;2023-06-19T07:52:10;8.60;;;7.90;;
76176;SDS011;64938;47.696;8.066;2023-06-19T07:54:54;8.93;;;8.23;;
76176;SDS011;64938;47.696;8.066;2023-06-19T07:57:22;8.18;;;7.47;;
76176;SDS011;64938;47.696;8.066;2023-06-19T07:59:48;8.63;;;8.02;;
76176;SDS011;64938;47.696;8.066;2023-06-19T08:02:18;8.23;;;7.63;;
76176;SDS011;64938;47.696;8.066;2023-06-19T08:04:44;9.00;;;8.20;;
76176;SDS011;64938;47.696;8.066;2023-06-19T08:07:15;10.90;;;8.75;;
76176;SDS011;64938;47.696;8.066;2023-06-19T08:09:42;9.35;;;8.65;;
76176;SDS011;64938;47.696;8.066;2023-06-19T08:12:08;7.53;;;6.93;;
76176;SDS011;64938;47.696;8.066;2023-06-19T08:14:34;8.32;;;7.72;;
76176;SDS011;64938;47.696;8.066;2023-06-19T08:16:59;8.35;;;6.93;;
76176;SDS011;64938;47.696;8.066;2023-06-19T08:19:25;7.35;;;6.85;;
76176;SDS011;64938;47.696;8.066;2023-06-19T08:21:50;7.40;;;6.90;;
76176;SDS011;64938;47.696;8.066;2023-06-19T08:24:17;6.93;;;6.43;;
76176;SDS011;64938;47.696;8.066;2023-06-19T08:26:42;7.38;;;6.88;;
76176;SDS011;64938;47.696;8.066;2023-06-19T08:29:08;7.13;;;6.63;;
76176;SDS011;64938;47.696;8.066;2023-06-19T08:31:33;6.85;;;6.45;;
76176;SDS011;64938;47.696;8.066;2023-06-19T08:33:59;6.45;;;6.05;;
76176;SDS011;64938;47.696;8.066;2023-06-19T08:36:25;6.43;;;6.03;;
76176;SDS011;64938;47.696;8.066;2023-06-19T08:38:51;6.10;;;5.60;;
76176;SDS011;64938;47.696;8.066;2023-06-19T08:41:18;6.57;;;6.13;;
76176;SDS011;64938;47.696;8.066;2023-06-19T08:43:44;6.28;;;5.78;;
76176;SDS011;64938;47.696;8.066;2023-06-19T08:46:11;6.55;;;6.15;;
76176;SDS011;64938;47.696;8.066;2023-06-19T08:48:39;7.05;;;6.45;;
76176;SDS011;64938;47.696;8.066;2023-06-19T08:51:05;12.00;;;7.35;;
76176;SDS011;64938;47.696;8.066;2023-06-19T08:53:34;8.90;;;6.03;;
76176;SDS011;64938;47.696;8.066;2023-06-19T08:56:04;7.40;;;6.80;;
76176;SDS011;64938;47.696;8.066;2023-06-19T08:58:31;7.40;;;6.80;;
76176;SDS011;64938;47.696;8.066;2023-06-19T09:00:59;6.80;;;6.40;;
76176;SDS011;64938;47.696;8.066;2023-06-19T09:03:25;6.70;;;6.20;;
76176;SDS011;64938;47.696;8.066;2023-06-19T09:05:50;7.13;;;6.47;;
76176;SDS011;64938;47.696;8.066;2023-06-19T09:08:16;6.80;;;6.30;;
76176;SDS011;64938;47.696;8.066;2023-06-19T09:10:58;6.85;;;6.35;;
76176;SDS011;64938;47.696;8.066;2023-06-19T09:13:25;7.50;;;6.97;;
76176;SDS011;64938;47.696;8.066;2023-06-19T09:16:02;7.57;;;7.07;;
76176;SDS011;64938;47.696;8.066;2023-06-19T09:18:32;6.97;;;6.50;;
76176;SDS011;64938;47.696;8.066;2023-06-19T09:21:14;7.72;;;7.05;;
76176;SDS011;64938;47.696;8.066;2023-06-19T09:23:44;6.43;;;5.95;;
76176;SDS011;64938;47.696;8.066;2023-06-19T09:26:16;7.30;;;6.60;;
76176;SDS011;64938;47.696;8.066;2023-06-19T09:28:43;6.80;;;6.20;;
76176;SDS011;64938;47.696;8.066;2023-06-19T09:31:09;7.18;;;6.68;;
76176;SDS011;64938;47.696;8.066;2023-06-19T09:33:34;7.60;;;7.00;;
76176;SDS011;64938;47.696;8.066;2023-06-19T09:36:03;7.30;;;6.70;;
76176;SDS011;64938;47.696;8.066;2023-06-19T09:38:31;6.93;;;6.43;;
76176;SDS011;64938;47.696;8.066;2023-06-19T09:41:00;6.82;;;6.32;;
76176;SDS011;64938;47.696;8.066;2023-06-19T09:43:37;5.97;;;5.57;;
76176;SDS011;64938;47.696;8.066;2023-06-19T09:46:05;7.60;;;7.00;;
76176;SDS011;64938;47.696;8.066;2023-06-19T09:48:31;6.90;;;6.40;;
76176;SDS011;64938;47.696;8.066;2023-06-19T09:51:01;7.35;;;6.65;;
76176;SDS011;64938;47.696;8.066;2023-06-19T09:53:31;7.43;;;6.82;;
76176;SDS011;64938;47.696;8.066;2023-06-19T09:55:58;7.60;;;7.10;;
76176;SDS011;64938;47.696;8.066;2023-06-19T09:58:23;7.00;;;6.50;;
76176;SDS011;64938;47.696;8.066;2023-06-19T10:00:50;7.47;;;6.88;;
76176;SDS011;64938;47.696;8.066;2023-06-19T10:03:16;5.72;;;5.22;;
76176;SDS011;64938;47.696;8.066;2023-06-19T10:05:41;6.10;;;5.70;;
76176;SDS011;64938;47.696;8.066;2023-06-19T10:08:07;5.85;;;5.45;;
76176;SDS011;64938;47.696;8.066;2023-06-19T10:10:33;6.10;;;5.70;;
76176;SDS011;64938;47.696;8.066;2023-06-19T10:13:11;6.78;;;6.18;;
76176;SDS011;64938;47.696;8.066;2023-06-19T10:15:42;5.97;;;5.47;;
76176;SDS011;64938;47.696;8.066;2023-06-19T10:18:14;5.55;;;5.15;;
76176;SDS011;64938;47.696;8.066;2023-06-19T10:20:44;6.05;;;5.65;;
76176;SDS011;64938;47.696;8.066;2023-06-19T10:23:15;5.68;;;5.28;;
76176;SDS011;64938;47.696;8.066;2023-06-19T10:25:55;5.78;;;5.38;;
76176;SDS011;64938;47.696;8.066;2023-06-19T10:28:32;6.30;;;5.80;;
76176;SDS011;64938;47.696;8.066;2023-06-19T10:31:05;5.82;;;5.43;;
76176;SDS011;64938;47.696;8.066;2023-06-19T10:33:35;5.90;;;5.50;;
76176;SDS011;64938;47.696;8.066;2023-06-19T10:36:21;6.35;;;5.78;;
76176;SDS011;64938;47.696;8.066;2023-06-19T10:38:52;5.65;;;5.25;;
76176;SDS011;64938;47.696;8.066;2023-06-19T10:41:20;5.93;;;5.32;;
76176;SDS011;64938;47.696;8.066;2023-06-19T10:44:02;6.53;;;5.93;;
76176;SDS011;64938;47.696;8.066;2023-06-19T10:46:40;5.88;;;5.47;;
76176;SDS011;64938;47.696;8.066;2023-06-19T10:49:06;6.60;;;6.10;;
76176;SDS011;64938;47.696;8.066;2023-06-19T10:51:35;7.07;;;5.72;;
76176;SDS011;64938;47.696;8.066;2023-06-19T10:54:04;6.40;;;5.90;;
76176;SDS011;64938;47.696;8.066;2023-06-19T10:56:30;7.00;;;6.40;;
76176;SDS011;64938;47.696;8.066;2023-06-19T10:59:03;6.85;;;6.35;;
76176;SDS011;64938;47.696;8.066;2023-06-19T11:01:37;6.82;;;5.78;;
76176;SDS011;64938;47.696;8.066;2023-06-19T11:04:05;6.60;;;6.10;;
76176;SDS011;64938;47.696;8.066;2023-06-19T11:06:32;7.47;;;6.50;;
76176;SDS011;64938;47.696;8.066;2023-06-19T11:08:58;5.78;;;5.38;;
76176;SDS011;64938;47.696;8.066;2023-06-19T11:14:07;6.57;;;6.07;;
76176;SDS011;64938;47.696;8.066;2023-06-19T11:16:33;7.35;;;6.75;;
76176;SDS011;64938;47.696;8.066;2023-06-19T11:19:00;6.95;;;6.25;;
76176;SDS011;64938;47.696;8.066;2023-06-19T11:21:45;6.70;;;6.00;;
76176;SDS011;64938;47.696;8.066;2023-06-19T11:24:12;7.00;;;6.47;;
76176;SDS011;64938;47.696;8.066;2023-06-19T11:26:42;7.28;;;6.60;;
76176;SDS011;64938;47.696;8.066;2023-06-19T11:29:47;6.40;;;6.00;;
76176;SDS011;64938;47.696;8.066;2023-06-19T11:32:08;6.70;;;6.20;;
76176;SDS011;64938;47.696;8.066;2023-06-19T11:34:38;6.40;;;5.90;;
76176;SDS011;64938;47.696;8.066;2023-06-19T11:37:16;6.90;;;6.40;;
76176;SDS011;64938;47.696;8.066;2023-06-19T11:39:49;7.32;;;6.65;;
76176;SDS011;64938;47.696;8.066;2023-06-19T11:42:17;7.00;;;6.38;;
76176;SDS011;64938;47.696;8.066;2023-06-19T11:44:57;7.57;;;6.85;;
76176;SDS011;64938;47.696;8.066;2023-06-19T11:47:29;8.48;;;6.68;;
76176;SDS011;64938;47.696;8.066;2023-06-19T11:49:56;7.18;;;6.68;;
76176;SDS011;64938;47.696;8.066;2023-06-19T11:52:26;7.35;;;6.72;;
76176;SDS011;64938;47.696;8.066;2023-06-19T11:54:52;7.32;;;6.60;;
76176;SDS011;64938;47.696;8.066;2023-06-19T11:57:19;7.30;;;6.70;;
76176;SDS011;64938;47.696;8.066;2023-06-19T11:59:45;7.38;;;6.68;;
76176;SDS011;64938;47.696;8.066;2023-06-19T12:02:11;7.70;;;7.15;;
76176;SDS011;64938;47.696;8.066;2023-06-19T12:04:37;7.50;;;6.90;;
76176;SDS011;64938;47.696;8.066;2023-06-19T12:07:03;7.70;;;7.10;;
76176;SDS011;64938;47.696;8.066;2023-06-19T12:09:33;7.25;;;6.65;;
76176;SDS011;64938;47.696;8.066;2023-06-19T12:11:59;7.03;;;6.63;;
76176;SDS011;64938;47.696;8.066;2023-06-19T12:14:26;7.82;;;7.32;;
76176;SDS011;64938;47.696;8.066;2023-06-19T12:16:51;7.40;;;6.90;;
76176;SDS011;64938;47.696;8.066;2023-06-19T12:19:18;7.57;;;6.88;;
76176;SDS011;64938;47.696;8.066;2023-06-19T12:21:44;7.65;;;7.15;;
76176;SDS011;64938;47.696;8.066;2023-06-19T12:24:09;7.75;;;7.15;;
76176;SDS011;64938;47.696;8.066;2023-06-19T12:26:35;7.88;;;7.18;;
76176;SDS011;64938;47.696;8.066;2023-06-19T12:29:05;7.47;;;6.93;;
76176;SDS011;64938;47.696;8.066;2023-06-19T12:31:32;7.88;;;7.32;;
76176;SDS011;64938;47.696;8.066;2023-06-19T12:33:58;7.78;;;7.18;;
76176;SDS011;64938;47.696;8.066;2023-06-19T12:36:24;8.13;;;7.47;;
76176;SDS011;64938;47.696;8.066;2023-06-19T12:38:52;7.80;;;7.20;;
76176;SDS011;64938;47.696;8.066;2023-06-19T12:41:19;8.18;;;7.57;;
76176;SDS011;64938;47.696;8.066;2023-06-19T12:43:45;8.23;;;7.63;;
76176;SDS011;64938;47.696;8.066;2023-06-19T12:46:10;8.00;;;7.50;;
76176;SDS011;64938;47.696;8.066;2023-06-19T12:48:36;9.43;;;7.53;;
76176;SDS011;64938;47.696;8.066;2023-06-19T12:51:01;7.93;;;7.30;;
76176;SDS011;64938;47.696;8.066;2023-06-19T12:53:27;8.07;;;7.38;;
76176;SDS011;64938;47.696;8.066;2023-06-19T12:55:56;8.35;;;7.65;;
76176;SDS011;64938;47.696;8.066;2023-06-19T12:58:22;7.80;;;7.20;;
76176;SDS011;64938;47.696;8.066;2023-06-19T13:00:49;7.72;;;7.22;;
76176;SDS011;64938;47.696;8.066;2023-06-19T13:03:17;8.25;;;7.65;;
76176;SDS011;64938;47.696;8.066;2023-06-19T13:05:44;8.02;;;7.43;;
76176;SDS011;64938;47.696;8.066;2023-06-19T13:08:10;7.72;;;7.13;;
76176;SDS011;64938;47.696;8.066;2023-06-19T13:10:36;9.07;;;8.43;;
76176;SDS011;64938;47.696;8.066;2023-06-19T13:13:02;9.23;;;8.52;;
76176;SDS011;64938;47.696;8.066;2023-06-19T13:15:27;8.23;;;7.57;;
76176;SDS011;64938;47.696;8.066;2023-06-19T13:17:53;8.07;;;7.47;;
76176;SDS011;64938;47.696;8.066;2023-06-19T13:20:18;8.10;;;7.30;;
76176;SDS011;64938;47.696;8.066;2023-06-19T13:22:46;8.38;;;7.80;;
76176;SDS011;64938;47.696;8.066;2023-06-19T13:25:12;8.48;;;7.80;;
76176;SDS011;64938;47.696;8.066;2023-06-19T13:27:37;7.32;;;6.70;;
76176;SDS011;64938;47.696;8.066;2023-06-19T13:30:03;7.93;;;7.32;;
76176;SDS011;64938;47.696;8.066;2023-06-19T13:32:29;7.70;;;7.03;;
76176;SDS011;64938;47.696;8.066;2023-06-19T13:34:55;7.97;;;7.38;;
76176;SDS011;64938;47.696;8.066;2023-06-19T13:37:21;7.40;;;6.90;;
76176;SDS011;64938;47.696;8.066;2023-06-19T13:39:47;7.53;;;6.93;;
76176;SDS011;64938;47.696;8.066;2023-06-19T13:42:14;7.78;;;6.95;;
76176;SDS011;64938;47.696;8.066;2023-06-19T13:44:40;8.85;;;6.85;;
76176;SDS011;64938;47.696;8.066;2023-06-19T13:47:06;7.93;;;7.32;;
76176;SDS011;64938;47.696;8.066;2023-06-19T13:49:32;8.02;;;7.25;;
76176;SDS011;64938;47.696;8.066;2023-06-19T13:51:58;7.57;;;6.97;;
76176;SDS011;64938;47.696;8.066;2023-06-19T13:54:23;8.05;;;7.22;;
76176;SDS011;64938;47.696;8.066;2023-06-19T13:56:57;8.15;;;7.47;;
76176;SDS011;64938;47.696;8.066;2023-06-19T13:59:27;7.60;;;7.10;;
76176;SDS011;64938;47.696;8.066;2023-06-19T14:01:55;8.13;;;7.15;;
76176;SDS011;64938;47.696;8.066;2023-06-19T14:04:21;6.95;;;6.45;;
76176;SDS011;64938;47.696;8.066;2023-06-19T14:06:47;7.85;;;7.35;;
76176;SDS011;64938;47.696;8.066;2023-06-19T14:09:13;7.35;;;6.85;;
76176;SDS011;64938;47.696;8.066;2023-06-19T14:11:38;8.00;;;7.40;;
76176;SDS011;64938;47.696;8.066;2023-06-19T14:14:06;8.60;;;8.00;;
76176;SDS011;64938;47.696;8.066;2023-06-19T14:16:36;7.22;;;6.70;;
76176;SDS011;64938;47.696;8.066;2023-06-19T14:19:02;7.95;;;7.45;;
76176;SDS011;64938;47.696;8.066;2023-06-19T14:21:28;7.55;;;6.93;;
76176;SDS011;64938;47.696;8.066;2023-06-19T14:23:54;7.80;;;7.18;;
76176;SDS011;64938;47.696;8.066;2023-06-19T14:26:19;7.45;;;6.95;;
76176;SDS011;64938;47.696;8.066;2023-06-19T14:28:47;7.40;;;6.80;;
76176;SDS011;64938;47.696;8.066;2023-06-19T14:31:13;8.00;;;7.30;;
76176;SDS011;64938;47.696;8.066;2023-06-19T14:33:39;10.00;;;7.22;;
76176;SDS011;64938;47.696;8.066;2023-06-19T14:36:04;8.00;;;7.30;;
76176;SDS011;64938;47.696;8.066;2023-06-19T14:38:31;7.72;;;7.22;;
76176;SDS011;64938;47.696;8.066;2023-06-19T14:41:01;7.90;;;7.30;;
76176;SDS011;64938;47.696;8.066;2023-06-19T14:43:28;7.78;;;7.18;;
76176;SDS011;64938;47.696;8.066;2023-06-19T14:45:54;7.38;;;6.85;;
76176;SDS011;64938;47.696;8.066;2023-06-19T14:48:24;7.70;;;7.10;;